Time;durP1;ratioP1;P1;durP2;ratioP2;P2;SDS_P1;SDS_P2;PMS_P1;PMS_P2;Temp;Humidity;BMP_temperature;BMP_pressure;BME280_temperature;BME280_humidity;BME280_pressure;Samples;Min_cycle;Max_cycle;Signal;HPM_P1;HPM_P2
2020/12/14 00:00:55;;;;;;;7.30;1.92;;;;;;;6.68;74.50;100531.81;5183698;28;20038;-70
2020/12/14 00:03:26;;;;;;;6.32;1.80;;;;;;;6.70;74.70;100522.09;5183562;28;20026;-69
2020/12/14 00:05:58;;;;;;;6.45;1.58;;;;;;;6.67;74.34;100512.75;5182290;28;20145;-69
2020/12/14 00:08:29;;;;;;;7.97;2.08;;;;;;;6.68;74.56;100522.22;5181184;28;20031;-71
2020/12/14 00:11:00;;;;;;;6.72;2.15;;;;;;;6.68;74.27;100506.59;5180298;28;20038;-69
2020/12/14 00:13:31;;;;;;;11.15;1.80;;;;;;;6.74;74.56;100511.34;5182544;28;20062;-70
2020/12/14 00:16:07;;;;;;;5.95;1.55;;;;;;;6.75;74.98;100509.59;5180976;28;20090;-70
2020/12/14 00:18:38;;;;;;;5.47;1.50;;;;;;;6.75;75.45;100504.38;5180356;28;20041;-69
2020/12/14 00:21:09;;;;;;;6.05;2.58;;;;;;;6.76;75.74;100487.81;5181933;28;20030;-69
2020/12/14 00:23:41;;;;;;;5.75;1.50;;;;;;;6.77;75.06;100484.25;5183243;28;20035;-69
2020/12/14 00:26:13;;;;;;;4.72;1.50;;;;;;;6.78;75.47;100475.47;5197610;28;20447;-69
2020/12/14 00:28:47;;;;;;;5.25;1.52;;;;;;;6.79;75.82;100471.97;5178806;28;20058;-69
2020/12/14 00:31:19;;;;;;;5.53;1.67;;;;;;;6.82;75.82;100487.34;5179634;28;20053;-69
2020/12/14 00:33:50;;;;;;;5.20;1.60;;;;;;;6.85;75.22;100489.72;5182415;28;20030;-69
2020/12/14 00:36:22;;;;;;;4.70;1.30;;;;;;;6.82;75.55;100484.75;5183431;28;20042;-71
2020/12/14 00:38:53;;;;;;;8.60;1.58;;;;;;;6.87;76.17;100485.22;5182954;28;20069;-69
2020/12/14 00:41:24;;;;;;;7.20;1.80;;;;;;;6.86;75.92;100491.38;5183273;28;20031;-69
2020/12/14 00:43:55;;;;;;;2.95;1.35;;;;;;;6.90;76.10;100492.81;5181403;28;20088;-70
2020/12/14 00:46:27;;;;;;;5.97;1.40;;;;;;;6.92;76.29;100492.69;5181546;28;20045;-69
2020/12/14 00:48:58;;;;;;;4.97;1.40;;;;;;;6.91;75.86;100491.84;5181818;28;20081;-70
2020/12/14 00:51:30;;;;;;;4.25;1.45;;;;;;;6.94;75.84;100496.03;5181137;28;20066;-69
2020/12/14 00:54:02;;;;;;;5.80;1.30;;;;;;;6.92;76.94;100488.31;5183989;28;20030;-71
2020/12/14 00:56:34;;;;;;;4.13;1.40;;;;;;;6.95;76.45;100497.66;5180511;28;20077;-69
2020/12/14 00:59:05;;;;;;;4.85;2.15;;;;;;;6.95;76.34;100487.25;5182038;28;20027;-69
2020/12/14 01:01:37;;;;;;;4.53;1.48;;;;;;;7.00;76.91;100496.38;5182831;28;20050;-71
2020/12/14 01:04:08;;;;;;;4.70;1.20;;;;;;;6.99;77.12;100492.09;5183621;28;20047;-70
2020/12/14 01:06:39;;;;;;;6.50;1.92;;;;;;;7.02;76.67;100485.84;5183641;28;20034;-69
2020/12/14 01:09:10;;;;;;;5.65;1.50;;;;;;;7.06;76.97;100488.09;5185320;28;20022;-69
2020/12/14 01:11:42;;;;;;;4.93;1.30;;;;;;;7.08;76.50;100482.75;5183707;28;20038;-69
2020/12/14 01:14:13;;;;;;;3.53;1.00;;;;;;;7.09;76.96;100479.22;5183018;28;20101;-69
2020/12/14 01:16:47;;;;;;;5.53;1.63;;;;;;;7.09;76.53;100468.81;5182105;28;20030;-69
2020/12/14 01:19:19;;;;;;;4.40;1.30;;;;;;;7.07;77.40;100471.50;5188951;28;20543;-70
2020/12/14 01:21:50;;;;;;;5.78;1.70;;;;;;;7.12;76.52;100465.13;5184702;28;20073;-69
2020/12/14 01:24:21;;;;;;;6.80;1.73;;;;;;;7.06;76.82;100443.00;5185884;28;20041;-69
2020/12/14 01:26:52;;;;;;;3.08;1.10;;;;;;;7.05;77.19;100434.34;5184326;28;20037;-71
2020/12/14 01:29:23;;;;;;;6.10;1.60;;;;;;;7.13;77.28;100451.19;5183825;28;20121;-69
2020/12/14 01:31:55;;;;;;;3.30;1.38;;;;;;;7.12;77.60;100462.53;5184358;28;20019;-71
2020/12/14 01:34:26;;;;;;;3.53;1.35;;;;;;;7.12;77.38;100465.94;5185695;28;20164;-69
2020/12/14 01:36:57;;;;;;;5.47;1.50;;;;;;;7.12;77.16;100475.53;5183109;28;20476;-69
2020/12/14 01:39:28;;;;;;;4.20;1.58;;;;;;;7.15;76.98;100483.13;5184180;28;20085;-71
2020/12/14 01:42:00;;;;;;;3.13;1.20;;;;;;;7.14;77.63;100482.31;5183652;28;20027;-69
2020/12/14 01:44:31;;;;;;;4.53;1.52;;;;;;;7.14;77.24;100476.28;5185095;28;20065;-69
2020/12/14 01:47:03;;;;;;;4.82;1.40;;;;;;;7.13;77.28;100479.84;5182126;28;20066;-69
2020/12/14 01:49:34;;;;;;;2.90;1.20;;;;;;;7.16;77.54;100483.03;5187302;28;20042;-69
2020/12/14 01:52:05;;;;;;;4.43;1.98;;;;;;;7.12;77.88;100472.94;5180950;28;20465;-70
2020/12/14 01:54:38;;;;;;;4.20;1.27;;;;;;;7.16;77.86;100479.56;5184140;28;20022;-70
2020/12/14 01:57:09;;;;;;;2.50;1.45;;;;;;;7.18;78.08;100481.13;5197944;28;20026;-69
2020/12/14 01:59:40;;;;;;;3.13;1.17;;;;;;;7.17;78.11;100474.25;5184799;28;20030;-71
2020/12/14 02:02:12;;;;;;;5.15;1.70;;;;;;;7.18;77.42;100464.66;5184205;28;20471;-69
2020/12/14 02:04:44;;;;;;;5.70;1.45;;;;;;;7.18;77.76;100467.28;5182163;28;20133;-70
2020/12/14 02:07:15;;;;;;;4.63;1.40;;;;;;;7.18;78.07;100464.66;5185582;28;20058;-69
2020/12/14 02:09:46;;;;;;;6.78;2.10;;;;;;;7.11;78.01;100460.88;5185808;28;20022;-70
2020/12/14 02:12:17;;;;;;;4.85;1.38;;;;;;;7.18;78.26;100462.06;5184124;28;20054;-71
2020/12/14 02:14:54;;;;;;;3.38;1.92;;;;;;;7.17;78.66;100460.41;5184451;28;20026;-69
2020/12/14 02:17:26;;;;;;;4.15;1.50;;;;;;;7.19;78.68;100461.09;5181139;28;20295;-70
2020/12/14 02:19:57;;;;;;;4.72;1.50;;;;;;;7.18;78.58;100456.84;5187845;28;20038;-69
2020/12/14 02:22:29;;;;;;;6.28;1.60;;;;;;;7.22;78.18;100458.28;5182332;28;20026;-70
2020/12/14 02:25:02;;;;;;;3.33;1.20;;;;;;;7.23;79.01;100439.91;5186153;28;20487;-70
2020/12/14 02:27:36;;;;;;;5.28;1.40;;;;;;;7.25;78.90;100450.22;5183533;28;20037;-70
2020/12/14 02:30:08;;;;;;;5.22;1.63;;;;;;;7.24;79.31;100446.78;5180514;28;20097;-71
2020/12/14 02:32:39;;;;;;;4.97;1.80;;;;;;;7.21;80.03;100441.00;5183585;28;20058;-69
2020/12/14 02:35:10;;;;;;;4.53;1.42;;;;;;;7.19;80.40;100441.09;5182660;28;20416;-69
2020/12/14 02:37:41;;;;;;;7.22;1.80;;;;;;;7.17;80.79;100439.56;5181531;28;20552;-70
2020/12/14 02:40:13;;;;;;;3.47;1.40;;;;;;;7.14;81.31;100429.38;5183200;28;20026;-69
2020/12/14 02:42:44;;;;;;;3.85;1.65;;;;;;;7.10;81.60;100430.56;5181092;28;20025;-71
2020/12/14 02:45:15;;;;;;;5.50;1.85;;;;;;;7.12;81.53;100441.69;5178437;28;20100;-69
2020/12/14 02:47:46;;;;;;;3.08;1.48;;;;;;;7.10;81.78;100441.81;5183526;28;20022;-69
2020/12/14 02:50:18;;;;;;;3.65;1.63;;;;;;;7.11;82.22;100437.44;5183735;28;20026;-69
2020/12/14 02:52:49;;;;;;;4.75;1.80;;;;;;;7.09;82.97;100431.53;5180237;28;20034;-71
2020/12/14 02:55:20;;;;;;;3.20;1.63;;;;;;;7.04;83.14;100430.06;5181860;28;20026;-70
2020/12/14 02:57:51;;;;;;;5.00;1.90;;;;;;;7.04;83.15;100432.66;5183940;28;20092;-69
2020/12/14 03:00:23;;;;;;;4.57;1.60;;;;;;;7.03;82.99;100415.41;5184913;28;20053;-72
2020/12/14 03:02:54;;;;;;;4.82;1.98;;;;;;;7.02;83.94;100428.56;5179378;28;20030;-69
2020/12/14 03:05:25;;;;;;;4.65;1.63;;;;;;;7.04;83.43;100431.84;5180486;28;20050;-72
2020/12/14 03:07:57;;;;;;;4.63;1.92;;;;;;;7.04;83.07;100426.63;5180495;28;20051;-69
2020/12/14 03:10:28;;;;;;;4.10;1.67;;;;;;;7.02;83.83;100412.91;5181528;28;20498;-69
2020/12/14 03:12:59;;;;;;;5.28;1.50;;;;;;;7.03;83.48;100420.59;5181801;28;20388;-69
2020/12/14 03:15:31;;;;;;;3.03;1.77;;;;;;;7.01;84.02;100419.09;5183021;28;20018;-70
2020/12/14 03:18:06;;;;;;;4.57;2.22;;;;;;;6.96;83.88;100409.00;5186920;28;20062;-69
2020/12/14 03:20:37;;;;;;;5.50;2.25;;;;;;;7.05;84.14;100420.50;5180108;28;20418;-70
2020/12/14 03:23:09;;;;;;;13.93;2.72;;;;;;;7.00;83.99;100409.59;5181103;28;20030;-71
2020/12/14 03:25:41;;;;;;;4.00;2.08;;;;;;;7.00;84.15;100409.59;5177733;28;20034;-70
2020/12/14 03:28:12;;;;;;;5.95;2.30;;;;;;;7.00;83.70;100415.63;5182003;28;20030;-69
2020/12/14 03:30:43;;;;;;;3.30;1.75;;;;;;;7.07;84.18;100411.59;5178198;23;20539;-69
2020/12/14 03:33:15;;;;;;;3.78;2.13;;;;;;;7.06;84.19;100414.34;5146290;28;20415;-72
2020/12/14 03:35:47;;;;;;;4.70;2.00;;;;;;;7.11;83.79;100413.97;5149525;28;20440;-69
2020/12/14 03:38:18;;;;;;;4.63;2.05;;;;;;;7.06;83.85;100412.56;5151563;28;20023;-71
2020/12/14 03:40:50;;;;;;;3.75;2.10;;;;;;;7.10;83.83;100413.16;5142141;28;20024;-69
2020/12/14 03:43:21;;;;;;;4.18;2.00;;;;;;;7.09;83.79;100405.47;5139844;29;20473;-69
2020/12/14 03:45:52;;;;;;;4.53;2.10;;;;;;;7.13;83.37;100422.53;5140294;29;20034;-69
2020/12/14 03:48:24;;;;;;;4.63;2.00;;;;;;;7.16;83.36;100411.84;5143929;29;20035;-69
2020/12/14 03:50:55;;;;;;;4.35;2.08;;;;;;;7.17;82.93;100413.53;5144485;28;20019;-70
2020/12/14 03:53:27;;;;;;;5.00;1.80;;;;;;;7.17;84.05;100403.09;5141650;28;20042;-69
2020/12/14 03:55:59;;;;;;;4.40;1.60;;;;;;;7.22;83.59;100406.16;5143406;29;20386;-68
2020/12/14 03:58:31;;;;;;;3.17;1.52;;;;;;;7.25;83.33;100413.75;5143103;28;20595;-70
2020/12/14 04:01:03;;;;;;;2.55;1.58;;;;;;;7.28;83.32;100413.50;5140176;29;20358;-69
2020/12/14 04:03:35;;;;;;;3.90;1.73;;;;;;;7.30;83.83;100416.81;5147635;28;20049;-69
2020/12/14 04:06:06;;;;;;;3.67;1.60;;;;;;;7.32;83.50;100422.75;5142253;29;20113;-69
2020/12/14 04:08:37;;;;;;;3.83;1.40;;;;;;;7.30;84.72;100420.25;5139891;29;20035;-71
2020/12/14 04:11:08;;;;;;;3.75;1.52;;;;;;;7.32;84.92;100431.38;5141559;28;20404;-68
2020/12/14 04:13:41;;;;;;;3.53;1.30;;;;;;;7.29;84.50;100425.59;5143119;29;20521;-68
2020/12/14 04:16:12;;;;;;;3.00;1.42;;;;;;;7.30;85.06;100427.25;5141905;28;20042;-70
2020/12/14 04:18:43;;;;;;;3.42;1.58;;;;;;;7.26;85.44;100412.78;5144316;28;20028;-68
2020/12/14 04:21:17;;;;;;;3.20;1.48;;;;;;;7.29;85.99;100422.97;5141912;28;20032;-70
2020/12/14 04:23:48;;;;;;;;;;;;;;;7.35;85.49;100426.88;5144030;29;20039;-68
2020/12/14 04:26:19;;;;;;;3.80;1.87;;;;;;;7.22;86.30;100408.78;5137627;28;20066;-71
2020/12/14 04:28:50;;;;;;;4.78;2.17;;;;;;;7.22;86.27;100408.78;5142055;29;20040;-69
2020/12/14 04:31:21;;;;;;;2.53;1.55;;;;;;;7.24;86.33;100414.69;5141675;29;20039;-69
2020/12/14 04:33:53;;;;;;;3.00;1.50;;;;;;;7.25;86.79;100416.34;5143198;28;20032;-68
2020/12/14 04:36:24;;;;;;;3.13;2.00;;;;;;;7.23;87.34;100411.25;5132945;29;20027;-68
2020/12/14 04:38:56;;;;;;;2.75;1.95;;;;;;;7.24;87.59;100410.31;5143041;28;20035;-68
2020/12/14 04:41:27;;;;;;;4.13;2.00;;;;;;;7.24;87.29;100415.53;5145009;28;20040;-68
2020/12/14 04:43:59;;;;;;;2.80;1.83;;;;;;;7.23;87.67;100410.41;5146825;28;20629;-70
2020/12/14 04:46:33;;;;;;;5.25;2.17;;;;;;;7.23;87.78;100411.25;5145221;28;20392;-69
2020/12/14 04:49:06;;;;;;;4.60;2.17;;;;;;;7.22;87.78;100407.00;5144587;29;20083;-68
2020/12/14 04:51:38;;;;;;;6.88;2.20;;;;;;;7.21;88.45;100397.53;5142689;29;20026;-68
2020/12/14 04:54:10;;;;;;;3.75;2.20;;;;;;;7.23;88.72;100395.59;5144601;29;20607;-68
2020/12/14 04:56:42;;;;;;;4.43;2.35;;;;;;;7.23;89.04;100402.59;5146946;28;20044;-68
2020/12/14 04:59:13;;;;;;;3.58;2.60;;;;;;;7.23;89.20;100403.44;5144687;29;20042;-68
2020/12/14 05:01:44;;;;;;;4.22;2.38;;;;;;;7.23;89.50;100403.44;5136722;29;20023;-68
2020/12/14 05:04:16;;;;;;;3.40;2.40;;;;;;;7.23;89.36;100393.00;5143452;28;20480;-69
2020/12/14 05:06:49;;;;;;;6.53;2.63;;;;;;;7.23;89.40;100392.19;5142031;29;20023;-68
2020/12/14 05:09:21;;;;;;;5.60;2.70;;;;;;;7.23;89.96;100400.00;5141105;29;20035;-69
2020/12/14 05:11:52;;;;;;;3.85;2.40;;;;;;;7.24;89.74;100399.91;5147440;29;20075;-68
2020/12/14 05:14:25;;;;;;;4.03;2.50;;;;;;;7.23;90.27;100400.81;5143634;29;20755;-68
2020/12/14 05:16:56;;;;;;;5.28;2.20;;;;;;;7.24;90.47;100392.06;5144408;29;20024;-68
2020/12/14 05:19:28;;;;;;;4.88;3.15;;;;;;;7.19;90.20;100375.97;5145356;29;20543;-70
2020/12/14 05:22:00;;;;;;;4.18;2.22;;;;;;;7.23;90.33;100387.78;5144501;28;20396;-67
2020/12/14 05:24:32;;;;;;;4.47;2.60;;;;;;;7.24;90.25;100399.06;5145711;28;20040;-69
2020/12/14 05:27:03;;;;;;;4.03;2.63;;;;;;;7.25;90.20;100387.69;5143419;29;20083;-68
2020/12/14 05:29:34;;;;;;;5.30;2.47;;;;;;;7.26;90.25;100381.53;5145456;28;20051;-68
2020/12/14 05:32:12;;;;;;;3.45;2.35;;;;;;;7.26;90.38;100386.75;5145555;28;20078;-70
2020/12/14 05:34:44;;;;;;;5.10;2.70;;;;;;;7.27;90.17;100385.78;5146248;28;20031;-70
2020/12/14 05:37:16;;;;;;;4.97;2.67;;;;;;;7.24;90.64;100386.88;5144011;29;20334;-68
2020/12/14 05:39:47;;;;;;;4.33;2.60;;;;;;;7.27;90.46;100383.19;5141835;29;20432;-68
2020/12/14 05:42:20;;;;;;;5.95;2.90;;;;;;;7.27;90.82;100378.81;5146355;28;20379;-68
2020/12/14 05:44:52;;;;;;;5.88;2.53;;;;;;;7.30;90.65;100390.75;5143738;29;20512;-71
2020/12/14 05:47:23;;;;;;;3.60;2.10;;;;;;;7.31;90.02;100397.63;5145655;29;20035;-68
2020/12/14 05:49:56;;;;;;;5.30;2.27;;;;;;;7.30;90.31;100393.38;5145944;28;20039;-70
2020/12/14 05:52:33;;;;;;;4.05;2.55;;;;;;;7.34;90.32;100389.56;5145970;29;20039;-68
2020/12/14 05:55:08;;;;;;;5.35;2.40;;;;;;;7.31;90.82;100393.25;5143768;29;20036;-71
2020/12/14 05:57:39;;;;;;;5.70;2.50;;;;;;;7.33;90.41;100393.13;5146231;29;20028;-70
2020/12/14 06:00:11;;;;;;;4.43;2.13;;;;;;;7.35;90.65;100399.06;5142486;28;20059;-69
2020/12/14 06:02:42;;;;;;;5.47;2.53;;;;;;;7.39;90.35;100389.22;5142070;28;20055;-70
2020/12/14 06:05:14;;;;;;;5.43;2.70;;;;;;;7.37;90.76;100385.91;5134465;29;20071;-68
2020/12/14 06:07:58;;;;;;;4.47;2.60;;;;;;;7.40;90.87;100383.06;5138565;29;20043;-68
2020/12/14 06:10:31;;;;;;;4.57;2.33;;;;;;;7.43;91.14;100394.06;5147028;28;20115;-69
2020/12/14 06:13:07;;;;;;;4.13;2.88;;;;;;;7.48;90.70;100399.75;5139865;29;20039;-70
2020/12/14 06:15:39;;;;;;;6.07;2.50;;;;;;;7.45;90.48;100386.94;5134319;29;20051;-68
2020/12/14 06:18:13;;;;;;;5.03;2.85;;;;;;;7.46;91.09;100396.44;5133867;28;20040;-68
2020/12/14 06:20:45;;;;;;;4.60;2.88;;;;;;;7.47;90.62;100403.31;5147063;29;20387;-69
2020/12/14 06:23:17;;;;;;;4.60;2.47;;;;;;;7.53;91.49;100418.44;5139305;28;20065;-72
2020/12/14 06:25:48;;;;;;;6.07;2.58;;;;;;;7.56;91.54;100407.78;5147546;29;20030;-68
2020/12/14 06:28:30;;;;;;;3.83;2.33;;;;;;;7.57;91.08;100412.03;5145458;28;20020;-69
2020/12/14 06:31:02;;;;;;;4.70;2.67;;;;;;;7.60;91.18;100397.94;5145041;28;20051;-68
2020/12/14 06:33:40;;;;;;;4.63;2.78;;;;;;;7.64;91.71;100406.34;5141196;29;20038;-68
2020/12/14 06:36:23;;;;;;;6.68;2.80;;;;;;;7.65;91.57;100408.84;5143769;28;20478;-69
2020/12/14 06:38:54;;;;;;;5.22;2.90;;;;;;;7.66;91.66;100409.66;5142206;28;20110;-70
2020/12/14 06:41:30;;;;;;;5.85;3.03;;;;;;;7.66;91.70;100391.41;5141656;29;20440;-71
2020/12/14 06:44:04;;;;;;;6.28;3.00;;;;;;;7.70;92.41;100398.88;5142893;29;20046;-70
2020/12/14 06:46:36;;;;;;;5.93;2.85;;;;;;;7.69;92.40;100402.44;5141547;29;20031;-68
2020/12/14 06:49:09;;;;;;;5.65;3.35;;;;;;;7.65;91.90;100385.38;5142623;28;20432;-74
2020/12/14 06:51:53;;;;;;;6.20;3.00;;;;;;;7.76;91.77;100387.09;5142794;28;20397;-71
2020/12/14 06:54:42;;;;;;;5.63;3.25;;;;;;;7.74;92.38;100374.19;5141636;29;20114;-71
2020/12/14 06:57:17;;;;;;;5.47;3.25;;;;;;;7.78;92.49;100387.81;5159578;28;20092;-72
2020/12/14 06:59:52;;;;;;;4.72;3.63;;;;;;;7.79;91.98;100384.25;5144918;29;20028;-73
2020/12/14 07:02:40;;;;;;;4.88;3.25;;;;;;;7.82;92.03;100386.63;5142842;29;20579;-70
2020/12/14 07:05:32;;;;;;;3.95;3.00;;;;;;;7.83;92.33;100396.09;5140955;28;20047;-72
2020/12/14 07:08:04;;;;;;;5.50;3.30;;;;;;;7.82;93.32;100404.88;5143665;28;20326;-71
2020/12/14 07:10:35;;;;;;;4.93;3.30;;;;;;;7.84;92.59;100407.34;5143604;29;20071;-70
2020/12/14 07:13:09;;;;;;;6.15;3.47;;;;;;;7.84;92.79;100402.13;5140278;28;20031;-71
2020/12/14 07:15:40;;;;;;;4.60;3.08;;;;;;;7.90;92.87;100410.31;5137390;28;20549;-74
2020/12/14 07:18:17;;;;;;;5.03;3.38;;;;;;;7.91;93.10;100403.31;5140507;28;20039;-70
2020/12/14 07:20:52;;;;;;;3.65;3.20;;;;;;;7.94;93.30;100397.84;5140966;29;20027;-71
2020/12/14 07:23:24;;;;;;;5.70;3.30;;;;;;;7.95;92.77;100394.28;5142196;28;20035;-71
2020/12/14 07:25:56;;;;;;;4.60;3.40;;;;;;;7.99;93.33;100409.59;5141845;28;20057;-71
2020/12/14 07:28:35;;;;;;;6.10;2.90;;;;;;;7.94;93.17;100403.88;5142756;29;20044;-73
2020/12/14 07:31:09;;;;;;;3.90;2.75;;;;;;;8.02;93.43;100414.53;5141270;28;20567;-72
2020/12/14 07:33:49;;;;;;;3.90;3.20;;;;;;;8.06;93.24;100407.28;5143204;29;20035;-72
2020/12/14 07:36:21;;;;;;;5.45;3.00;;;;;;;8.10;93.76;100421.72;5144768;29;20051;-72
2020/12/14 07:38:54;;;;;;;3.63;3.10;;;;;;;8.11;93.75;100428.63;5140426;29;20440;-72
2020/12/14 07:41:27;;;;;;;5.35;2.80;;;;;;;8.10;93.31;100419.13;5140235;28;20070;-71
2020/12/14 07:44:00;;;;;;;6.50;3.45;;;;;;;8.16;93.35;100428.25;5135347;28;20146;-71
2020/12/14 07:46:33;;;;;;;3.47;3.00;;;;;;;8.20;93.73;100429.66;5130817;29;20035;-71
2020/12/14 07:49:10;;;;;;;3.47;2.60;;;;;;;8.21;93.37;100436.53;5133189;29;20055;-72
2020/12/14 07:51:45;;;;;;;3.60;2.58;;;;;;;8.28;93.37;100450.72;5140038;29;20369;-72
2020/12/14 07:54:20;;;;;;;6.10;3.15;;;;;;;8.31;93.66;100450.47;5137911;29;20031;-73
2020/12/14 07:57:06;;;;;;;4.38;2.80;;;;;;;8.32;93.59;100459.97;5130753;29;20152;-73
2020/12/14 07:59:38;;;;;;;3.50;2.80;;;;;;;8.36;93.23;100466.59;5125077;29;20027;-75
2020/12/14 08:02:09;;;;;;;3.95;3.13;;;;;;;8.37;93.43;100473.53;5141168;28;21125;-75
2020/12/14 08:04:40;;;;;;;3.40;3.10;;;;;;;8.40;93.33;100467.19;5137614;28;20501;-71
2020/12/14 08:07:16;;;;;;;3.22;2.92;;;;;;;8.44;93.00;100476.44;5140749;29;20154;-72
2020/12/14 08:09:47;;;;;;;2.95;2.60;;;;;;;8.43;93.25;100486.06;5138692;28;20115;-74
2020/12/14 08:12:19;;;;;;;2.85;2.53;;;;;;;8.44;93.28;100487.69;5140656;29;20027;-71
2020/12/14 08:14:50;;;;;;;3.88;2.70;;;;;;;8.45;93.65;100480.72;5134331;28;20055;-70
2020/12/14 08:17:22;;;;;;;4.40;3.00;;;;;;;8.45;92.74;100475.50;5142151;29;20553;-72
2020/12/14 08:19:54;;;;;;;3.55;2.55;;;;;;;8.56;93.55;100479.81;5139863;29;20125;-72
2020/12/14 08:22:34;;;;;;;2.65;2.40;;;;;;;8.54;93.07;100482.56;5143883;29;20541;-71
2020/12/14 08:25:05;;;;;;;4.40;2.30;;;;;;;8.61;92.75;100488.13;5142748;29;20477;-72
2020/12/14 08:27:48;;;;;;;3.05;1.98;;;;;;;8.64;93.08;100495.72;5142796;29;20031;-72
2020/12/14 08:30:21;;;;;;;3.58;1.95;;;;;;;8.64;92.82;100501.75;5140432;29;20035;-71
2020/12/14 08:33:06;;;;;;;3.03;1.90;;;;;;;8.69;92.75;100504.81;5141799;28;20046;-71
2020/12/14 08:35:39;;;;;;;3.00;2.15;;;;;;;8.66;92.72;100499.84;5140260;28;20066;-71
2020/12/14 08:38:24;;;;;;;3.65;2.08;;;;;;;8.69;92.79;100491.75;5142993;29;20116;-73
2020/12/14 08:41:01;;;;;;;4.07;2.03;;;;;;;8.74;92.87;100500.03;5141137;29;20043;-71
2020/12/14 08:43:34;;;;;;;3.13;2.13;;;;;;;8.77;92.46;100502.38;5140013;29;20869;-72
2020/12/14 08:46:17;;;;;;;3.88;1.90;;;;;;;8.78;92.64;100509.25;5141980;28;20489;-71
2020/12/14 08:48:57;;;;;;;2.60;2.00;;;;;;;8.81;92.54;100508.19;5141150;29;20489;-71
2020/12/14 08:51:33;;;;;;;2.55;2.00;;;;;;;8.80;92.14;100500.50;5142092;29;20665;-72
2020/12/14 08:54:15;;;;;;;3.47;2.08;;;;;;;8.85;91.54;100506.97;5158457;28;20039;-73
2020/12/14 08:56:47;;;;;;;3.22;2.60;;;;;;;8.86;91.87;100508.63;5144161;29;20038;-71
2020/12/14 08:59:20;;;;;;;2.63;1.90;;;;;;;8.88;91.26;100511.94;5135277;29;20181;-71
2020/12/14 09:02:14;;;;;;;2.85;2.20;;;;;;;8.88;91.15;100511.94;5151212;28;20028;-71
2020/12/14 09:04:45;;;;;;;5.20;2.13;;;;;;;8.89;91.19;100520.63;5133815;29;20105;-71
2020/12/14 09:07:25;;;;;;;3.72;2.45;;;;;;;8.93;90.87;100519.41;5141090;28;20039;-71
2020/12/14 09:09:56;;;;;;;3.40;2.60;;;;;;;8.89;90.86;100510.16;5141064;29;20139;-71
2020/12/14 09:12:27;;;;;;;3.15;2.42;;;;;;;8.94;90.69;100524.53;5144508;29;20026;-70
2020/12/14 09:15:05;;;;;;;3.08;2.28;;;;;;;8.95;90.81;100526.16;5155389;28;20550;-70
2020/12/14 09:17:37;;;;;;;3.20;2.42;;;;;;;8.97;90.22;100534.69;5143571;29;20122;-70
2020/12/14 09:20:09;;;;;;;4.25;2.42;;;;;;;8.97;90.61;100532.06;5145950;29;20105;-69
2020/12/14 09:22:45;;;;;;;3.33;2.42;;;;;;;8.98;90.35;100530.31;5142490;28;20027;-70
2020/12/14 09:25:16;;;;;;;3.47;2.10;;;;;;;8.96;90.47;100527.81;5141401;28;20461;-69
2020/12/14 09:27:47;;;;;;;6.90;3.53;;;;;;;9.02;90.29;100542.16;5143405;28;20063;-72
2020/12/14 09:30:19;;;;;;;4.60;2.55;;;;;;;9.00;90.25;100538.84;5141338;28;20074;-71
2020/12/14 09:32:50;;;;;;;3.45;2.60;;;;;;;9.00;90.37;100544.91;5143997;29;20042;-71
2020/12/14 09:35:22;;;;;;;3.60;2.83;;;;;;;9.04;89.97;100553.31;5129364;29;20409;-69
2020/12/14 09:37:53;;;;;;;3.58;2.60;;;;;;;9.06;90.20;100558.44;5139591;29;20480;-71
2020/12/14 09:40:24;;;;;;;4.38;2.60;;;;;;;9.04;90.50;100553.31;5142617;29;20051;-71
2020/12/14 09:42:55;;;;;;;3.90;2.53;;;;;;;9.06;90.33;100559.25;5140923;29;20767;-69
2020/12/14 09:45:27;;;;;;;3.40;2.70;;;;;;;9.09;89.94;100553.78;5141385;28;20419;-71
2020/12/14 09:48:01;;;;;;;3.55;2.72;;;;;;;9.07;90.09;100552.25;5137490;28;21072;-69
2020/12/14 09:50:33;;;;;;;4.20;2.55;;;;;;;9.10;89.99;100557.22;5140733;29;20027;-69
2020/12/14 09:53:04;;;;;;;4.10;2.70;;;;;;;9.10;89.82;100552.00;5156437;28;20087;-70
2020/12/14 09:55:35;;;;;;;3.92;2.88;;;;;;;9.13;89.66;100549.94;5138819;29;20055;-71
2020/12/14 09:58:06;;;;;;;5.60;2.65;;;;;;;9.19;89.53;100548.59;5141517;29;20046;-70
2020/12/14 10:00:38;;;;;;;3.33;2.60;;;;;;;9.18;89.46;100541.72;5140295;28;20049;-71
2020/12/14 10:03:09;;;;;;;4.15;2.88;;;;;;;9.20;89.54;100539.78;5139709;29;20050;-71
2020/12/14 10:05:47;;;;;;;5.13;2.67;;;;;;;9.24;89.20;100543.78;5136461;28;20035;-70
2020/12/14 10:08:18;;;;;;;3.78;2.75;;;;;;;9.27;88.60;100552.22;5139749;29;20315;-71
2020/12/14 10:10:51;;;;;;;5.88;2.63;;;;;;;9.26;88.50;100534.88;5139547;29;20051;-70
2020/12/14 10:13:23;;;;;;;4.95;3.22;;;;;;;9.35;88.70;100543.72;5142357;28;20055;-70
2020/12/14 10:15:55;;;;;;;4.53;2.80;;;;;;;9.41;88.38;100552.84;5139560;29;20031;-71
2020/12/14 10:18:26;;;;;;;4.40;2.60;;;;;;;9.43;88.45;100554.38;5140992;29;20085;-71
2020/12/14 10:21:02;;;;;;;3.85;2.83;;;;;;;9.44;87.98;100556.03;5154580;28;20564;-70
2020/12/14 10:23:34;;;;;;;3.92;2.53;;;;;;;9.49;87.66;100566.09;5139379;29;20039;-70
2020/12/14 10:26:08;;;;;;;3.47;2.50;;;;;;;9.48;88.12;100557.44;5139451;29;20066;-71
2020/12/14 10:28:40;;;;;;;4.03;2.67;;;;;;;9.49;87.50;100556.47;5140792;28;20027;-70
2020/12/14 10:31:11;;;;;;;4.15;2.80;;;;;;;9.49;87.59;100563.47;5139966;29;20039;-71
2020/12/14 10:33:47;;;;;;;3.78;2.83;;;;;;;9.53;87.31;100559.66;5141396;29;20099;-71
2020/12/14 10:36:19;;;;;;;3.88;2.70;;;;;;;9.53;87.44;100564.88;5141676;29;20457;-71
2020/12/14 10:38:50;;;;;;;3.92;2.78;;;;;;;9.57;87.34;100568.06;5141246;29;20035;-71
2020/12/14 10:41:21;;;;;;;3.25;2.28;;;;;;;9.60;87.15;100571.25;5139909;29;20039;-71
2020/12/14 10:43:53;;;;;;;4.20;2.63;;;;;;;9.62;87.34;100563.25;5140689;29;20454;-71
2020/12/14 10:46:24;;;;;;;3.47;2.40;;;;;;;9.66;86.90;100567.28;5141401;29;20058;-70
2020/12/14 10:48:56;;;;;;;5.47;2.95;;;;;;;9.67;87.12;100571.56;5142241;29;20034;-71
2020/12/14 10:51:27;;;;;;;4.32;2.47;;;;;;;9.69;86.42;100570.44;5143500;28;20389;-70
2020/12/14 10:53:59;;;;;;;2.75;2.42;;;;;;;9.69;86.48;100567.00;5139086;29;20030;-71
2020/12/14 10:56:30;;;;;;;5.40;2.63;;;;;;;9.72;86.25;100566.75;5140024;29;20035;-71
2020/12/14 10:59:01;;;;;;;5.32;2.88;;;;;;;9.78;86.10;100571.47;5133917;29;20027;-71
2020/12/14 11:01:33;;;;;;;4.22;2.70;;;;;;;9.72;85.41;100562.34;5136193;29;20788;-71
2020/12/14 11:04:07;;;;;;;5.53;2.20;;;;;;;9.79;85.31;100572.28;5132669;29;20062;-71
2020/12/14 11:06:38;;;;;;;5.88;2.65;;;;;;;9.79;85.88;100580.16;5139568;28;20062;-71
2020/12/14 11:09:09;;;;;;;3.63;2.30;;;;;;;9.79;85.45;100582.75;5141493;28;20055;-71
2020/12/14 11:11:41;;;;;;;4.15;2.58;;;;;;;9.75;85.50;100574.34;5140221;29;20035;-71
2020/12/14 11:14:12;;;;;;;3.72;2.53;;;;;;;9.74;86.10;100578.75;5140274;28;20040;-70
2020/12/14 11:16:46;;;;;;;5.60;2.85;;;;;;;9.79;85.30;100582.75;5139728;28;20081;-71
2020/12/14 11:19:18;;;;;;;3.95;2.38;;;;;;;9.83;85.25;100584.16;5140615;29;20020;-71
2020/12/14 11:21:56;;;;;;;3.17;1.90;;;;;;;9.86;85.22;100596.97;5138712;28;20035;-71
2020/12/14 11:24:28;;;;;;;5.78;2.10;;;;;;;9.83;84.64;100581.53;5137955;28;20046;-71
2020/12/14 11:27:00;;;;;;;3.97;2.53;;;;;;;9.81;85.20;100591.28;5140357;29;20031;-71
2020/12/14 11:29:31;;;;;;;4.22;2.22;;;;;;;9.85;84.94;100584.84;5140350;29;20118;-71
2020/12/14 11:32:03;;;;;;;3.17;2.35;;;;;;;9.88;84.91;100588.03;5139782;28;20035;-71
2020/12/14 11:34:34;;;;;;;3.28;1.90;;;;;;;9.88;84.31;100585.41;5142114;29;20095;-71
2020/12/14 11:37:05;;;;;;;4.25;2.15;;;;;;;9.86;84.24;100583.91;5140348;28;20053;-69
2020/12/14 11:39:36;;;;;;;3.90;2.15;;;;;;;9.88;84.86;100589.81;5140346;28;20165;-71
2020/12/14 11:42:08;;;;;;;4.95;2.38;;;;;;;9.90;84.24;100580.06;5141520;29;20098;-70
2020/12/14 11:44:39;;;;;;;4.18;2.13;;;;;;;9.89;84.31;100575.78;5140612;29;20036;-71
2020/12/14 11:47:11;;;;;;;3.70;1.90;;;;;;;9.89;84.49;100581.84;5139410;28;20085;-70
2020/12/14 11:49:42;;;;;;;5.65;1.73;;;;;;;9.91;83.62;100574.69;5139465;29;20543;-71
2020/12/14 11:52:13;;;;;;;2.90;1.80;;;;;;;9.92;83.63;100578.13;5141511;29;20027;-71
2020/12/14 11:54:45;;;;;;;5.53;1.95;;;;;;;9.89;83.62;100566.16;5140778;29;20474;-71
2020/12/14 11:57:16;;;;;;;4.45;1.80;;;;;;;9.99;83.74;100580.06;5141738;29;20228;-71
2020/12/14 11:59:47;;;;;;;2.88;2.00;;;;;;;10.02;83.59;100581.59;5141931;29;20073;-71